Beaver, Oklahoma
Current Conditions -  °F | °C
As of 7:35 AM on Wednesday 22 Oct 2014 (Local Time) from KLBL Reporting Station
Overcast Overcast  
Wind Chill: 59°   Ceiling: 11000
Heat Index: 59°   Visibility: 10mi
Dew Point: 48°   Wind: 13mph
Humidity: 67%   Direction: 160°SSE
Pressure: 30.04"   Gusts: NA
Location:  36.82°N, 100.52°W
Report Text: KLBL 221235Z AUTO 16011KT 10SM OVC110 15/09 A3004 RMK AO1
Loading
Personal Weather Stations






























Interactive Weather Map New forecast layout! Learn more

10-Day Weather Forecast

Advertisements
Track Severe Weather on mobile